Time;durP1;ratioP1;P1;durP2;ratioP2;P2;SDS_P1;SDS_P2;PMS_P1;PMS_P2;Temp;Humidity;BMP_temperature;BMP_pressure;BME280_temperature;BME280_humidity;BME280_pressure;Samples;Min_cycle;Max_cycle;Signal;HPM_P1;HPM_P2
2022/05/15 00:01:17;;;;;;;4.80;2.80;;;;;;;;;;5021148;28;20211;-63
2022/05/15 00:03:45;;;;;;;3.37;3.07;;;;;;;;;;5022753;28;20218;-64
2022/05/15 00:06:12;;;;;;;3.97;2.97;;;;;;;;;;5004649;28;20218;-64
2022/05/15 00:08:39;;;;;;;3.83;2.63;;;;;;;;;;5014181;28;20233;-61
2022/05/15 00:11:08;;;;;;;3.07;2.77;;;;;;;;;;5011399;28;20211;-64
2022/05/15 00:13:36;;;;;;;2.60;2.40;;;;;;;;;;5019824;28;20198;-64
2022/05/15 00:16:04;;;;;;;3.73;3.17;;;;;;;;;;5016365;28;20213;-63
2022/05/15 00:18:32;;;;;;;4.43;2.90;;;;;;;;;;5011034;28;20233;-64
2022/05/15 00:21:00;;;;;;;3.70;2.60;;;;;;;;;;5030831;28;20203;-63
2022/05/15 00:23:28;;;;;;;4.57;3.03;;;;;;;;;;5002375;28;20260;-63
2022/05/15 00:25:56;;;;;;;6.70;3.00;;;;;;;;;;5019936;28;20202;-63
2022/05/15 00:28:23;;;;;;;4.03;3.17;;;;;;;;;;5022794;28;20222;-62
2022/05/15 00:30:51;;;;;;;5.40;3.03;;;;;;;;;;5014577;28;20642;-63
2022/05/15 00:33:19;;;;;;;7.07;3.20;;;;;;;;;;5008914;28;20206;-62
2022/05/15 00:35:47;;;;;;;5.13;3.30;;;;;;;;;;5039125;28;20737;-62
2022/05/15 00:38:14;;;;;;;3.33;3.03;;;;;;;;;;5014111;28;20218;-62
2022/05/15 00:40:44;;;;;;;4.50;2.47;;;;;;;;;;5004086;28;20225;-62
2022/05/15 00:43:12;;;;;;;3.77;3.00;;;;;;;;;;5003066;28;20219;-63
2022/05/15 00:45:40;;;;;;;4.80;3.30;;;;;;;;;;5005998;28;20214;-63
2022/05/15 00:48:07;;;;;;;3.53;2.80;;;;;;;;;;4999284;28;20263;-63
2022/05/15 00:50:37;;;;;;;3.30;3.00;;;;;;;;;;5000876;28;20230;-63
2022/05/15 00:53:08;;;;;;;3.33;2.87;;;;;;;;;;5012049;28;20281;-63
2022/05/15 00:55:36;;;;;;;4.00;2.80;;;;;;;;;;4990422;28;20210;-62
2022/05/15 00:58:12;;;;;;;4.77;3.23;;;;;;;;;;4989165;28;20615;-63
2022/05/15 01:00:42;;;;;;;3.30;2.83;;;;;;;;;;4987699;28;20272;-62
2022/05/15 01:03:17;;;;;;;3.23;2.80;;;;;;;;;;4991072;28;20763;-64
2022/05/15 01:05:46;;;;;;;3.20;2.90;;;;;;;;;;4996449;28;20364;-63
2022/05/15 01:08:20;;;;;;;5.13;3.07;;;;;;;;;;4996897;28;29768;-62
2022/05/15 01:10:49;;;;;;;3.43;3.13;;;;;;;;;;4991900;28;20230;-63
2022/05/15 01:13:17;;;;;;;3.90;2.73;;;;;;;;;;4990563;28;20295;-63
2022/05/15 01:15:46;;;;;;;4.07;2.50;;;;;;;;;;4992875;28;20210;-63
2022/05/15 01:18:13;;;;;;;5.87;2.70;;;;;;;;;;4988743;28;20747;-62
2022/05/15 01:20:41;;;;;;;3.10;2.57;;;;;;;;;;5000047;28;20218;-62
2022/05/15 01:23:09;;;;;;;3.73;2.90;;;;;;;;;;4996845;28;21852;-62
2022/05/15 01:25:37;;;;;;;5.40;3.10;;;;;;;;;;5010553;28;20268;-63
2022/05/15 01:28:08;;;;;;;5.07;3.10;;;;;;;;;;5005645;28;20240;-62
2022/05/15 01:30:36;;;;;;;4.30;3.20;;;;;;;;;;4996908;28;20249;-62
2022/05/15 01:33:04;;;;;;;3.07;2.77;;;;;;;;;;4992742;28;20214;-63
2022/05/15 01:35:32;;;;;;;4.70;2.77;;;;;;;;;;5016261;28;20594;-63
2022/05/15 01:38:08;;;;;;;4.77;2.90;;;;;;;;;;4995438;28;20309;-61
2022/05/15 01:40:36;;;;;;;5.63;3.20;;;;;;;;;;4994511;28;20221;-62
2022/05/15 01:43:04;;;;;;;4.43;3.20;;;;;;;;;;5008198;28;20787;-62
2022/05/15 01:45:32;;;;;;;4.60;3.00;;;;;;;;;;5008044;28;20203;-64
2022/05/15 01:48:00;;;;;;;4.43;2.83;;;;;;;;;;5007308;28;20735;-62
2022/05/15 01:50:27;;;;;;;4.00;2.90;;;;;;;;;;5004882;28;20230;-62
2022/05/15 01:52:54;;;;;;;3.00;2.77;;;;;;;;;;4999273;28;20218;-62
2022/05/15 01:55:22;;;;;;;4.53;3.23;;;;;;;;;;5014022;23;20202;-66
2022/05/15 01:57:49;;;;;;;3.27;2.63;;;;;;;;;;5030570;28;21344;-66
2022/05/15 02:00:23;;;;;;;3.37;3.00;;;;;;;;;;5037322;28;20235;-66
2022/05/15 02:02:51;;;;;;;3.53;2.67;;;;;;;;;;5034236;28;20205;-66
2022/05/15 02:05:19;;;;;;;5.90;3.10;;;;;;;;;;5035580;28;20236;-65
2022/05/15 02:07:48;;;;;;;3.43;2.87;;;;;;;;;;5032867;28;20214;-65
2022/05/15 02:10:18;;;;;;;3.47;2.60;;;;;;;;;;5036837;28;20221;-66
2022/05/15 02:12:47;;;;;;;5.07;2.90;;;;;;;;;;5048146;28;20352;-66
2022/05/15 02:15:15;;;;;;;6.23;3.73;;;;;;;;;;5041737;28;20228;-64
2022/05/15 02:17:42;;;;;;;4.37;3.10;;;;;;;;;;5035276;28;20260;-67
2022/05/15 02:20:13;;;;;;;5.20;2.90;;;;;;;;;;5037906;28;20215;-65
2022/05/15 02:22:42;;;;;;;5.30;3.20;;;;;;;;;;5026908;28;20218;-67
2022/05/15 02:25:11;;;;;;;4.30;2.93;;;;;;;;;;5037979;28;20236;-66
2022/05/15 02:27:38;;;;;;;3.30;2.60;;;;;;;;;;5034588;28;20259;-66
2022/05/15 02:30:09;;;;;;;4.43;2.63;;;;;;;;;;5034172;28;20348;-65
2022/05/15 02:32:37;;;;;;;4.10;2.57;;;;;;;;;;5027759;28;20712;-65
2022/05/15 02:35:04;;;;;;;5.23;2.50;;;;;;;;;;5030685;28;20213;-66
2022/05/15 02:37:32;;;;;;;2.87;2.43;;;;;;;;;;5034752;28;20205;-67
2022/05/15 02:39:59;;;;;;;5.03;2.60;;;;;;;;;;5041768;28;20213;-65
2022/05/15 02:42:27;;;;;;;3.27;2.70;;;;;;;;;;5041577;28;20232;-65
2022/05/15 02:44:54;;;;;;;7.03;4.23;;;;;;;;;;5045613;28;20274;-67
2022/05/15 02:47:22;;;;;;;4.40;3.57;;;;;;;;;;5045385;28;20214;-66
2022/05/15 02:52:35;;;;;;;4.47;2.90;;;;;;;;;;5034923;28;20572;-66
2022/05/15 02:55:03;;;;;;;5.30;3.83;;;;;;;;;;5013433;28;20209;-66
2022/05/15 02:57:30;;;;;;;4.43;3.40;;;;;;;;;;5007607;28;20202;-67
2022/05/15 02:59:58;;;;;;;3.77;3.37;;;;;;;;;;5022618;28;20210;-66
2022/05/15 03:02:25;;;;;;;6.27;3.63;;;;;;;;;;5038455;28;20686;-66
2022/05/15 03:04:55;;;;;;;3.80;3.27;;;;;;;;;;5041508;28;20214;-66
2022/05/15 03:07:23;;;;;;;4.17;2.97;;;;;;;;;;5030386;28;20210;-66
2022/05/15 03:09:51;;;;;;;3.97;2.60;;;;;;;;;;5028379;28;20685;-66
2022/05/15 03:12:20;;;;;;;3.10;2.43;;;;;;;;;;5053078;28;20206;-65
2022/05/15 03:14:48;;;;;;;4.17;2.40;;;;;;;;;;5030102;28;20210;-66
2022/05/15 03:17:16;;;;;;;2.67;2.17;;;;;;;;;;5030078;28;20235;-66
2022/05/15 03:19:44;;;;;;;2.77;2.33;;;;;;;;;;5041899;28;20310;-66
2022/05/15 03:22:12;;;;;;;2.60;2.40;;;;;;;;;;5027048;28;20209;-67
2022/05/15 03:24:39;;;;;;;2.80;2.50;;;;;;;;;;5030152;28;20872;-68
2022/05/15 03:27:07;;;;;;;2.90;2.30;;;;;;;;;;5029908;28;20233;-67
2022/05/15 03:29:35;;;;;;;2.37;2.17;;;;;;;;;;5037088;28;21726;-67
2022/05/15 03:32:02;;;;;;;2.97;2.20;;;;;;;;;;5035323;28;20290;-67
2022/05/15 03:34:30;;;;;;;3.50;2.40;;;;;;;;;;5032818;28;20202;-66
2022/05/15 03:36:57;;;;;;;9.80;5.87;;;;;;;;;;5029142;28;20640;-65
2022/05/15 03:39:25;;;;;;;7.03;4.53;;;;;;;;;;5033221;28;20231;-65
2022/05/15 03:41:52;;;;;;;4.13;3.53;;;;;;;;;;5035119;28;20208;-66
2022/05/15 03:44:23;;;;;;;2.50;2.30;;;;;;;;;;5046228;28;20206;-66
2022/05/15 03:46:51;;;;;;;3.20;2.27;;;;;;;;;;5044276;28;20676;-66
2022/05/15 03:49:18;;;;;;;2.77;2.40;;;;;;;;;;5047740;28;20731;-66
2022/05/15 03:51:46;;;;;;;3.93;2.00;;;;;;;;;;5032337;28;20222;-66
2022/05/15 03:54:14;;;;;;;6.10;2.23;;;;;;;;;;5037913;28;20259;-67
2022/05/15 03:56:50;;;;;;;3.70;1.90;;;;;;;;;;5035930;28;20205;-67
2022/05/15 03:59:20;;;;;;;4.57;2.00;;;;;;;;;;5031190;28;20260;-66
2022/05/15 04:01:48;;;;;;;3.20;1.90;;;;;;;;;;5030244;28;22669;-67
2022/05/15 04:04:16;;;;;;;2.33;1.93;;;;;;;;;;5035393;28;20255;-66
2022/05/15 04:06:43;;;;;;;4.77;2.30;;;;;;;;;;5034956;28;20305;-67
2022/05/15 04:09:10;;;;;;;3.20;2.83;;;;;;;;;;5025182;28;20233;-68
2022/05/15 04:11:38;;;;;;;5.60;2.67;;;;;;;;;;5030561;28;21316;-67
2022/05/15 04:14:06;;;;;;;2.40;2.20;;;;;;;;;;5041151;28;20212;-67
2022/05/15 04:16:33;;;;;;;2.83;2.10;;;;;;;;;;5026109;28;20225;-67
2022/05/15 04:19:01;;;;;;;3.97;1.87;;;;;;;;;;5025695;28;20231;-67
2022/05/15 04:21:36;;;;;;;3.63;2.40;;;;;;;;;;5035126;28;21816;-66
2022/05/15 04:24:04;;;;;;;4.57;2.10;;;;;;;;;;5050969;28;20220;-66
2022/05/15 04:26:32;;;;;;;2.13;1.90;;;;;;;;;;5032441;28;20205;-67
2022/05/15 04:29:00;;;;;;;2.33;2.10;;;;;;;;;;5030428;28;20310;-68
2022/05/15 04:31:28;;;;;;;2.50;2.10;;;;;;;;;;5027187;28;20240;-66
2022/05/15 04:33:55;;;;;;;7.33;2.47;;;;;;;;;;5031724;28;20202;-67
2022/05/15 04:36:23;;;;;;;3.83;2.63;;;;;;;;;;5024017;28;20217;-65
2022/05/15 04:38:50;;;;;;;4.67;2.47;;;;;;;;;;5029097;28;20245;-66
2022/05/15 04:41:19;;;;;;;3.47;2.40;;;;;;;;;;5031810;28;20263;-66
2022/05/15 04:43:47;;;;;;;3.50;3.20;;;;;;;;;;5040255;28;20214;-66
2022/05/15 04:46:15;;;;;;;4.50;2.50;;;;;;;;;;5038111;28;20209;-66
2022/05/15 04:48:43;;;;;;;2.60;2.40;;;;;;;;;;5025368;28;20640;-64
2022/05/15 04:51:11;;;;;;;3.67;2.70;;;;;;;;;;5031556;28;20226;-65
2022/05/15 04:53:38;;;;;;;4.73;2.60;;;;;;;;;;5040005;28;20205;-64
2022/05/15 04:56:05;;;;;;;4.83;2.77;;;;;;;;;;5040306;28;20205;-66
2022/05/15 04:58:33;;;;;;;4.10;2.50;;;;;;;;;;5039978;28;20297;-66
2022/05/15 05:01:01;;;;;;;3.23;2.60;;;;;;;;;;5040637;28;20202;-70
2022/05/15 05:03:28;;;;;;;4.87;3.47;;;;;;;;;;5037198;28;20220;-68
2022/05/15 05:05:56;;;;;;;3.10;2.80;;;;;;;;;;5041228;28;20231;-67
2022/05/15 05:08:24;;;;;;;3.90;2.50;;;;;;;;;;5043249;28;20221;-65
2022/05/15 05:10:51;;;;;;;5.03;2.27;;;;;;;;;;5038715;28;20228;-67
2022/05/15 05:13:19;;;;;;;3.57;2.50;;;;;;;;;;5039770;28;20201;-66
2022/05/15 05:15:46;;;;;;;2.67;2.13;;;;;;;;;;5033589;28;20304;-67
2022/05/15 05:18:18;;;;;;;2.60;2.40;;;;;;;;;;5033535;28;20404;-65
2022/05/15 05:20:46;;;;;;;2.60;2.40;;;;;;;;;;5032239;28;20212;-66
2022/05/15 05:23:14;;;;;;;3.20;2.60;;;;;;;;;;5036076;28;20289;-67
2022/05/15 05:25:42;;;;;;;4.60;2.80;;;;;;;;;;5035432;28;20611;-67
2022/05/15 05:28:09;;;;;;;4.30;3.00;;;;;;;;;;5036238;28;20287;-65
2022/05/15 05:30:37;;;;;;;3.90;2.30;;;;;;;;;;5027827;28;20222;-66
2022/05/15 05:33:05;;;;;;;2.65;2.03;;;;;;;;;;5030517;28;20202;-67
2022/05/15 05:35:33;;;;;;;2.47;2.05;;;;;;;;;;5036384;28;20221;-67
2022/05/15 05:38:01;;;;;;;2.50;1.75;;;;;;;;;;5033001;28;20244;-66
2022/05/15 05:40:32;;;;;;;3.22;1.90;;;;;;;;;;5038636;28;20267;-67
2022/05/15 05:42:59;;;;;;;2.08;1.65;;;;;;;;;;5052174;28;20213;-66
2022/05/15 05:45:26;;;;;;;3.00;1.90;;;;;;;;;;5045042;28;20205;-67
2022/05/15 05:47:55;;;;;;;2.08;1.77;;;;;;;;;;5046063;28;20803;-67
2022/05/15 05:50:24;;;;;;;3.80;1.67;;;;;;;;;;5038026;28;20237;-66
2022/05/15 05:52:51;;;;;;;2.78;1.50;;;;;;;;;;5031059;28;20203;-66
2022/05/15 05:55:19;;;;;;;4.45;1.70;;;;;;;;;;5029170;28;20209;-66
2022/05/15 05:57:49;;;;;;;4.18;1.60;;;;;;;;;;5028827;28;20210;-66
2022/05/15 06:00:19;;;;;;;3.08;1.90;;;;;;;;;;5030099;28;21201;-66
2022/05/15 06:02:46;;;;;;;2.30;1.67;;;;;;;;;;5044611;28;20229;-65
2022/05/15 06:05:14;;;;;;;2.38;1.70;;;;;;;;;;5052293;28;20205;-65
2022/05/15 06:07:42;;;;;;;4.10;1.63;;;;;;;;;;5054424;28;20711;-65
2022/05/15 06:10:11;;;;;;;3.58;1.73;;;;;;;;;;5049912;28;21205;-65
2022/05/15 06:12:41;;;;;;;2.42;1.67;;;;;;;;;;5053575;28;20304;-65
2022/05/15 06:15:11;;;;;;;4.10;1.67;;;;;;;;;;5048962;28;20217;-66
2022/05/15 06:17:38;;;;;;;4.90;3.00;;;;;;;;;;5036498;28;20266;-66
2022/05/15 06:20:08;;;;;;;3.15;2.08;;;;;;;;;;5051585;28;20823;-65
2022/05/15 06:22:36;;;;;;;1.60;1.50;;;;;;;;;;5053624;28;20243;-66
2022/05/15 06:25:03;;;;;;;2.70;2.00;;;;;;;;;;5057328;28;20758;-66
2022/05/15 06:27:31;;;;;;;1.98;1.65;;;;;;;;;;5046038;28;20694;-66
2022/05/15 06:30:00;;;;;;;3.85;1.90;;;;;;;;;;5048959;28;20201;-65
2022/05/15 06:32:28;;;;;;;2.47;1.85;;;;;;;;;;5048023;28;20233;-64
2022/05/15 06:34:55;;;;;;;2.67;1.60;;;;;;;;;;5053020;28;20247;-66
2022/05/15 06:37:23;;;;;;;4.82;2.03;;;;;;;;;;5054197;28;20206;-66
2022/05/15 06:39:50;;;;;;;3.72;2.95;;;;;;;;;;5045289;28;20287;-65
2022/05/15 06:42:18;;;;;;;6.35;3.40;;;;;;;;;;5048947;28;20340;-66
2022/05/15 06:44:45;;;;;;;3.75;2.80;;;;;;;;;;5052678;28;20218;-66
2022/05/15 06:47:12;;;;;;;5.97;2.25;;;;;;;;;;5055107;28;20579;-65
2022/05/15 06:49:40;;;;;;;3.03;1.70;;;;;;;;;;5053120;28;20311;-66
2022/05/15 06:52:07;;;;;;;4.43;2.03;;;;;;;;;;5054167;28;20251;-66
2022/05/15 06:54:35;;;;;;;4.15;1.90;;;;;;;;;;5056527;28;20321;-66
2022/05/15 06:59:49;;;;;;;5.50;2.00;;;;;;;;;;5045485;28;20303;-66
2022/05/15 07:02:20;;;;;;;3.45;2.10;;;;;;;;;;5051744;28;20258;-66
2022/05/15 07:04:47;;;;;;;4.60;1.95;;;;;;;;;;5052221;28;20198;-66
2022/05/15 07:07:14;;;;;;;3.50;2.08;;;;;;;;;;5054697;28;20214;-66
2022/05/15 07:09:42;;;;;;;3.20;2.25;;;;;;;;;;5050767;28;20229;-65
2022/05/15 07:12:09;;;;;;;4.38;2.20;;;;;;;;;;5049461;28;20229;-66
2022/05/15 07:14:37;;;;;;;2.60;2.30;;;;;;;;;;5049621;28;20267;-65
2022/05/15 07:17:04;;;;;;;3.72;2.22;;;;;;;;;;5051908;28;20217;-65
2022/05/15 07:19:34;;;;;;;4.15;2.28;;;;;;;;;;5048910;28;20227;-66
2022/05/15 07:22:02;;;;;;;3.28;2.00;;;;;;;;;;5044023;28;20925;-65
2022/05/15 07:24:29;;;;;;;4.45;2.33;;;;;;;;;;5046273;28;20225;-65
2022/05/15 07:26:57;;;;;;;4.72;2.10;;;;;;;;;;5045129;28;20282;-64
2022/05/15 07:29:24;;;;;;;4.05;2.20;;;;;;;;;;5040471;28;22278;-65
2022/05/15 07:31:53;;;;;;;3.17;2.00;;;;;;;;;;5042852;28;20233;-66
2022/05/15 07:34:21;;;;;;;4.43;2.60;;;;;;;;;;5043559;28;20681;-65
2022/05/15 07:36:50;;;;;;;3.33;2.60;;;;;;;;;;5047186;28;20229;-66
2022/05/15 07:39:18;;;;;;;2.97;2.45;;;;;;;;;;5054932;28;20614;-66
2022/05/15 07:41:46;;;;;;;4.68;2.38;;;;;;;;;;5044557;28;20225;-64
2022/05/15 07:44:13;;;;;;;2.45;2.22;;;;;;;;;;5052596;28;20201;-65
2022/05/15 07:46:41;;;;;;;4.20;2.33;;;;;;;;;;5044451;28;20209;-65
2022/05/15 07:49:10;;;;;;;2.70;1.80;;;;;;;;;;5041387;28;20793;-65
2022/05/15 07:51:41;;;;;;;3.00;1.90;;;;;;;;;;5039921;28;20634;-64
2022/05/15 07:54:09;;;;;;;4.20;2.13;;;;;;;;;;5047875;28;20224;-66
2022/05/15 07:56:36;;;;;;;4.18;2.30;;;;;;;;;;5048475;28;20201;-65
2022/05/15 07:59:04;;;;;;;3.60;2.30;;;;;;;;;;5032587;28;20222;-66
2022/05/15 08:01:32;;;;;;;3.05;2.20;;;;;;;;;;5035555;28;20205;-65
2022/05/15 08:03:59;;;;;;;5.63;2.13;;;;;;;;;;5035944;28;20270;-64
2022/05/15 08:09:13;;;;;;;5.13;2.47;;;;;;;;;;5047174;28;20229;-66
2022/05/15 08:11:40;;;;;;;6.30;2.05;;;;;;;;;;5037013;28;23881;-65
2022/05/15 08:14:08;;;;;;;5.80;2.05;;;;;;;;;;5034420;28;20210;-63
2022/05/15 08:16:36;;;;;;;3.03;2.15;;;;;;;;;;5034829;28;20210;-65
2022/05/15 08:24:38;;;;;;;4.68;2.45;;;;;;;;;;5042726;28;20210;-65
2022/05/15 08:27:06;;;;;;;5.32;2.30;;;;;;;;;;5045542;28;20205;-66
2022/05/15 08:29:34;;;;;;;2.75;2.10;;;;;;;;;;5046658;28;20448;-64
2022/05/15 08:32:02;;;;;;;2.47;2.20;;;;;;;;;;5044339;28;20244;-66
2022/05/15 08:34:30;;;;;;;2.20;1.80;;;;;;;;;;5051775;28;20201;-65
2022/05/15 08:36:58;;;;;;;3.85;2.10;;;;;;;;;;5048604;28;20205;-66
2022/05/15 08:39:25;;;;;;;2.50;1.80;;;;;;;;;;5046873;28;20222;-64
2022/05/15 08:42:02;;;;;;;4.85;2.10;;;;;;;;;;5042959;28;20702;-66
2022/05/15 08:44:34;;;;;;;4.25;2.17;;;;;;;;;;5050007;28;20615;-65
2022/05/15 08:47:09;;;;;;;3.72;2.05;;;;;;;;;;5044583;28;20247;-63
2022/05/15 08:49:41;;;;;;;3.83;2.08;;;;;;;;;;5039122;28;20241;-64
2022/05/15 08:52:11;;;;;;;4.55;2.30;;;;;;;;;;5048230;28;20228;-65
2022/05/15 08:54:42;;;;;;;5.55;2.10;;;;;;;;;;5054267;28;20225;-64
2022/05/15 08:57:16;;;;;;;2.13;1.90;;;;;;;;;;5041688;28;20260;-65
2022/05/15 08:59:51;;;;;;;3.08;1.90;;;;;;;;;;5052155;28;20224;-64
2022/05/15 09:02:18;;;;;;;3.83;1.95;;;;;;;;;;5043118;28;20228;-64
2022/05/15 09:04:45;;;;;;;4.22;2.25;;;;;;;;;;5046733;28;20219;-65
2022/05/15 09:07:16;;;;;;;4.15;2.20;;;;;;;;;;5058717;28;20218;-65
2022/05/15 09:09:50;;;;;;;2.70;1.90;;;;;;;;;;5045190;28;20229;-64
2022/05/15 09:12:19;;;;;;;2.92;2.10;;;;;;;;;;5041560;28;20801;-66
2022/05/15 09:15:04;;;;;;;3.60;2.03;;;;;;;;;;5048612;28;20202;-66
2022/05/15 09:17:43;;;;;;;2.35;1.95;;;;;;;;;;5040865;28;20205;-66
2022/05/15 09:20:16;;;;;;;4.70;1.90;;;;;;;;;;5055676;28;20194;-65
2022/05/15 09:22:48;;;;;;;4.90;2.05;;;;;;;;;;5050849;28;20208;-65
2022/05/15 09:25:21;;;;;;;4.18;1.60;;;;;;;;;;5060624;28;20507;-66
2022/05/15 09:28:15;;;;;;;3.80;1.80;;;;;;;;;;5064120;28;20213;-66
2022/05/15 09:30:50;;;;;;;4.97;1.90;;;;;;;;;;5031567;28;20210;-66
2022/05/15 09:33:21;;;;;;;3.42;1.70;;;;;;;;;;5050545;28;20632;-67
2022/05/15 09:35:49;;;;;;;2.97;1.70;;;;;;;;;;5037249;28;20730;-65
2022/05/15 09:38:29;;;;;;;3.63;1.63;;;;;;;;;;5034034;28;20631;-65
2022/05/15 09:43:58;;;;;;;2.95;1.70;;;;;;;;;;5047495;28;20206;-64
2022/05/15 09:46:27;;;;;;;3.15;1.98;;;;;;;;;;5049902;28;20207;-64
2022/05/15 09:48:54;;;;;;;4.38;1.60;;;;;;;;;;5051385;28;20220;-65
2022/05/15 09:51:30;;;;;;;2.08;1.70;;;;;;;;;;5062436;28;20224;-65
2022/05/15 09:53:58;;;;;;;4.10;2.10;;;;;;;;;;5060246;28;20300;-65
2022/05/15 09:56:30;;;;;;;3.47;1.85;;;;;;;;;;5056478;28;20205;-65
2022/05/15 09:58:59;;;;;;;3.67;2.10;;;;;;;;;;5053306;28;20325;-64
2022/05/15 10:01:48;;;;;;;4.68;1.67;;;;;;;;;;5053376;28;20198;-66
2022/05/15 10:04:45;;;;;;;2.65;2.00;;;;;;;;;;5061247;28;20202;-65
2022/05/15 10:07:27;;;;;;;1.98;1.60;;;;;;;;;;5043331;28;20202;-66
2022/05/15 10:10:12;;;;;;;2.58;1.85;;;;;;;;;;5056760;28;20210;-67
2022/05/15 10:12:42;;;;;;;3.03;1.80;;;;;;;;;;5058725;28;20947;-67
2022/05/15 10:15:09;;;;;;;2.25;1.60;;;;;;;;;;5053508;28;20206;-66
2022/05/15 10:17:40;;;;;;;2.47;1.67;;;;;;;;;;5045711;28;20251;-65
2022/05/15 10:20:16;;;;;;;5.82;2.10;;;;;;;;;;5053233;28;20562;-66
2022/05/15 10:22:49;;;;;;;4.22;1.80;;;;;;;;;;5062779;28;20209;-66
2022/05/15 10:25:37;;;;;;;1.80;1.63;;;;;;;;;;5055422;28;20206;-65
2022/05/15 10:28:08;;;;;;;3.10;2.08;;;;;;;;;;5053676;28;20264;-64
2022/05/15 10:30:40;;;;;;;3.50;1.73;;;;;;;;;;5060235;28;20218;-65
2022/05/15 10:33:12;;;;;;;2.65;1.48;;;;;;;;;;5036609;28;20707;-64
2022/05/15 10:35:40;;;;;;;1.95;1.60;;;;;;;;;;5032055;28;20753;-65
2022/05/15 10:38:26;;;;;;;4.32;1.90;;;;;;;;;;5058950;28;20214;-64
2022/05/15 10:40:55;;;;;;;4.35;2.10;;;;;;;;;;5052956;28;20201;-66
2022/05/15 10:43:34;;;;;;;3.38;1.80;;;;;;;;;;5051147;28;20484;-66
2022/05/15 10:46:12;;;;;;;2.08;1.98;;;;;;;;;;5053237;28;20216;-66
2022/05/15 10:48:46;;;;;;;3.33;1.73;;;;;;;;;;5057844;28;20311;-65
2022/05/15 10:51:14;;;;;;;2.72;1.70;;;;;;;;;;5056272;28;20295;-65
2022/05/15 10:59:22;;;;;;;3.33;1.80;;;;;;;;;;5054416;28;20659;-65
2022/05/15 11:01:50;;;;;;;3.72;1.63;;;;;;;;;;5055722;28;20206;-65
2022/05/15 11:04:25;;;;;;;1.67;1.58;;;;;;;;;;5056159;28;20213;-65
2022/05/15 11:06:57;;;;;;;3.33;1.52;;;;;;;;;;5055508;28;20438;-66
2022/05/15 11:09:45;;;;;;;1.95;1.50;;;;;;;;;;5058612;28;20229;-66
2022/05/15 11:12:49;;;;;;;5.35;2.13;;;;;;;;;;5050288;28;20302;-65
2022/05/15 11:15:29;;;;;;;4.43;2.00;;;;;;;;;;5052530;28;20201;-65
2022/05/15 11:18:20;;;;;;;4.07;1.80;;;;;;;;;;5053219;28;20253;-65
2022/05/15 11:20:49;;;;;;;1.95;1.58;;;;;;;;;;5040963;28;20263;-65
2022/05/15 11:23:20;;;;;;;4.05;1.63;;;;;;;;;;5051765;28;20682;-64
2022/05/15 11:25:47;;;;;;;1.85;1.52;;;;;;;;;;5056817;28;20235;-66
2022/05/15 11:28:15;;;;;;;3.35;1.75;;;;;;;;;;5053609;28;20229;-66
2022/05/15 11:30:49;;;;;;;3.70;1.80;;;;;;;;;;5052907;28;20367;-64
2022/05/15 11:33:25;;;;;;;1.88;1.35;;;;;;;;;;5051492;28;20225;-64
2022/05/15 11:36:08;;;;;;;2.55;1.60;;;;;;;;;;5055618;28;20205;-65
2022/05/15 11:38:45;;;;;;;3.47;2.05;;;;;;;;;;5050958;28;20253;-65
2022/05/15 11:41:31;;;;;;;5.82;4.70;;;;;;;;;;5054663;28;20618;-66
2022/05/15 11:43:59;;;;;;;5.90;2.20;;;;;;;;;;5054230;28;20635;-67
2022/05/15 11:46:45;;;;;;;4.60;4.20;;;;;;;;;;5061454;28;20267;-66
2022/05/15 11:49:25;;;;;;;2.03;1.53;;;;;;;;;;5056691;28;20225;-67
2022/05/15 11:52:12;;;;;;;4.20;2.25;;;;;;;;;;5051026;28;21020;-67
2022/05/15 11:54:48;;;;;;;2.97;1.50;;;;;;;;;;5057100;28;20198;-66
2022/05/15 11:57:35;;;;;;;4.30;1.92;;;;;;;;;;5058815;28;20300;-63
2022/05/15 12:00:05;;;;;;;3.08;1.30;;;;;;;;;;5048190;28;20620;-65
2022/05/15 12:02:36;;;;;;;1.60;1.50;;;;;;;;;;5054300;28;20278;-65
2022/05/15 12:05:09;;;;;;;5.68;3.65;;;;;;;;;;5063766;28;20221;-64
2022/05/15 12:07:55;;;;;;;3.90;3.13;;;;;;;;;;5050995;28;20694;-64
2022/05/15 12:10:33;;;;;;;3.28;2.17;;;;;;;;;;5060509;28;20330;-64
2022/05/15 12:13:30;;;;;;;5.78;5.28;;;;;;;;;;5059512;28;20568;-68
2022/05/15 12:16:14;;;;;;;13.30;11.90;;;;;;;;;;5057652;28;20205;-65
2022/05/15 12:18:43;;;;;;;3.22;1.60;;;;;;;;;;5050973;28;20217;-66
2022/05/15 12:21:14;;;;;;;4.30;3.45;;;;;;;;;;5058992;28;20251;-66
2022/05/15 12:26:45;;;;;;;1.70;1.60;;;;;;;;;;5057510;28;20206;-66
2022/05/15 12:29:30;;;;;;;2.90;1.60;;;;;;;;;;5046492;28;20644;-66
2022/05/15 12:31:58;;;;;;;2.60;1.85;;;;;;;;;;5057072;28;20568;-66
2022/05/15 12:34:31;;;;;;;3.72;1.50;;;;;;;;;;5055306;28;20212;-66
2022/05/15 12:37:19;;;;;;;2.22;1.77;;;;;;;;;;5054895;28;20209;-67
2022/05/15 12:39:51;;;;;;;1.50;1.40;;;;;;;;;;5056502;28;20225;-67
2022/05/15 12:42:33;;;;;;;7.97;6.25;;;;;;;;;;5050443;28;20210;-66
2022/05/15 12:45:09;;;;;;;1.92;1.73;;;;;;;;;;5052510;28;20309;-66
2022/05/15 12:47:37;;;;;;;3.28;1.58;;;;;;;;;;5056781;28;20206;-66
2022/05/15 12:50:10;;;;;;;2.03;1.50;;;;;;;;;;5057808;28;20205;-67
2022/05/15 12:52:39;;;;;;;3.00;1.80;;;;;;;;;;5046540;28;20225;-67
2022/05/15 12:55:09;;;;;;;2.65;1.60;;;;;;;;;;5052068;28;20612;-66
2022/05/15 12:58:07;;;;;;;2.55;1.70;;;;;;;;;;5052696;28;20219;-66
2022/05/15 13:00:36;;;;;;;2.58;1.50;;;;;;;;;;5055213;28;20221;-66
2022/05/15 13:03:09;;;;;;;3.15;1.60;;;;;;;;;;5053750;28;20205;-65
2022/05/15 13:05:52;;;;;;;3.22;1.45;;;;;;;;;;5051054;28;20242;-66
2022/05/15 13:08:20;;;;;;;3.65;1.70;;;;;;;;;;5054946;28;20241;-66
2022/05/15 13:10:56;;;;;;;2.15;1.73;;;;;;;;;;5050581;28;20222;-66
2022/05/15 13:13:36;;;;;;;3.53;1.60;;;;;;;;;;5058486;28;20736;-66
2022/05/15 13:16:05;;;;;;;3.15;1.77;;;;;;;;;;5054951;28;20218;-66
2022/05/15 13:18:34;;;;;;;2.97;1.40;;;;;;;;;;5046922;28;20225;-65
2022/05/15 13:21:07;;;;;;;4.13;1.65;;;;;;;;;;5060647;28;20210;-66
2022/05/15 13:23:37;;;;;;;3.83;1.52;;;;;;;;;;5061539;28;20208;-65
2022/05/15 13:26:05;;;;;;;3.13;1.55;;;;;;;;;;5051312;28;20346;-64
2022/05/15 13:28:33;;;;;;;3.47;1.80;;;;;;;;;;5058812;28;20226;-67
2022/05/15 13:31:01;;;;;;;3.28;1.45;;;;;;;;;;5056913;28;20797;-65
2022/05/15 13:33:32;;;;;;;2.28;1.40;;;;;;;;;;5058639;28;20230;-66
2022/05/15 13:36:00;;;;;;;2.85;1.80;;;;;;;;;;5059631;28;20201;-65
2022/05/15 13:38:29;;;;;;;4.45;1.60;;;;;;;;;;5051327;28;20056;-65
2022/05/15 13:43:42;;;;;;;;;;;;;;;;;;5063750;28;19936;-66
2022/05/15 13:46:32;;;;;;;2.50;1.73;;;;;;;;;;5057936;28;19921;-65
2022/05/15 13:49:01;;;;;;;2.28;1.67;;;;;;;;;;5050823;28;20255;-67
2022/05/15 13:51:45;;;;;;;3.60;1.50;;;;;;;;;;5055037;28;20267;-66
2022/05/15 13:54:21;;;;;;;2.47;1.70;;;;;;;;;;5056494;28;20385;-65
2022/05/15 13:56:48;;;;;;;2.58;1.42;;;;;;;;;;5053648;28;20221;-65
2022/05/15 13:59:28;;;;;;;2.10;1.60;;;;;;;;;;5037095;28;20226;-65
2022/05/15 14:02:08;;;;;;;4.95;1.83;;;;;;;;;;5052296;28;20205;-67
2022/05/15 14:04:39;;;;;;;2.38;1.60;;;;;;;;;;5045057;28;20663;-65
2022/05/15 14:07:07;;;;;;;2.58;1.63;;;;;;;;;;5045194;28;20324;-64
2022/05/15 14:09:43;;;;;;;2.00;1.60;;;;;;;;;;5052402;28;20260;-64
2022/05/15 14:12:13;;;;;;;2.17;1.77;;;;;;;;;;5053706;28;20213;-65
2022/05/15 14:14:46;;;;;;;3.47;1.60;;;;;;;;;;5056641;28;20198;-64
2022/05/15 14:17:17;;;;;;;3.25;1.70;;;;;;;;;;5061317;28;20197;-63
2022/05/15 14:20:01;;;;;;;4.60;1.40;;;;;;;;;;5039366;28;20221;-64
2022/05/15 14:22:35;;;;;;;2.38;1.58;;;;;;;;;;5053848;28;20255;-65
2022/05/15 14:25:02;;;;;;;2.15;1.40;;;;;;;;;;5054539;28;20599;-64
2022/05/15 14:27:30;;;;;;;2.35;1.50;;;;;;;;;;5059137;28;20263;-66
2022/05/15 14:29:57;;;;;;;2.97;1.50;;;;;;;;;;5055885;28;20221;-63
2022/05/15 14:32:27;;;;;;;1.67;1.40;;;;;;;;;;5042056;28;20216;-64
2022/05/15 14:34:57;;;;;;;1.83;1.50;;;;;;;;;;5045688;28;20275;-64
2022/05/15 14:37:24;;;;;;;2.88;1.50;;;;;;;;;;5044281;28;20197;-68
2022/05/15 14:39:52;;;;;;;3.47;1.95;;;;;;;;;;5036192;28;20232;-66
2022/05/15 14:42:19;;;;;;;1.58;1.48;;;;;;;;;;5041258;28;20217;-67
2022/05/15 14:44:46;;;;;;;3.22;1.70;;;;;;;;;;5037729;28;20217;-64
2022/05/15 14:47:15;;;;;;;2.55;1.50;;;;;;;;;;5026571;28;20210;-65
2022/05/15 14:49:44;;;;;;;5.55;1.50;;;;;;;;;;5046624;28;20814;-65
2022/05/15 14:52:15;;;;;;;1.60;1.50;;;;;;;;;;5051235;28;20261;-65
2022/05/15 14:54:43;;;;;;;2.15;1.42;;;;;;;;;;5055506;28;20198;-65
2022/05/15 14:57:11;;;;;;;2.85;1.58;;;;;;;;;;5050628;28;20216;-65
2022/05/15 14:59:40;;;;;;;3.13;1.67;;;;;;;;;;5051629;28;20231;-66
2022/05/15 15:02:08;;;;;;;3.10;1.55;;;;;;;;;;5062404;28;20205;-67
2022/05/15 15:04:36;;;;;;;3.70;1.50;;;;;;;;;;5063755;28;20209;-65
2022/05/15 15:07:05;;;;;;;1.65;1.30;;;;;;;;;;5060178;28;20205;-65
2022/05/15 15:09:33;;;;;;;1.90;1.42;;;;;;;;;;5053916;28;21218;-65
2022/05/15 15:12:00;;;;;;;2.85;1.67;;;;;;;;;;5060165;28;20741;-66
2022/05/15 15:14:28;;;;;;;2.80;1.60;;;;;;;;;;5056298;28;20221;-64
2022/05/15 15:16:56;;;;;;;1.52;1.30;;;;;;;;;;5051877;28;20625;-65
2022/05/15 15:19:25;;;;;;;2.03;1.50;;;;;;;;;;5057242;28;20260;-65
2022/05/15 15:21:53;;;;;;;1.60;1.50;;;;;;;;;;5054656;28;20208;-64
2022/05/15 15:24:21;;;;;;;3.95;1.70;;;;;;;;;;5069484;28;20221;-65
2022/05/15 15:26:48;;;;;;;3.92;2.03;;;;;;;;;;5057300;28;20233;-65
2022/05/15 15:29:18;;;;;;;2.20;1.67;;;;;;;;;;5060838;28;20271;-64
2022/05/15 15:31:46;;;;;;;3.28;1.70;;;;;;;;;;5053764;28;20205;-65